Bryon Bay, Australia
Current Conditions -  °F | °C
As of 2:00 PM on Saturday 25 Oct 2014 (Local Time) from YBNA Reporting Station
Clear Clear  
Wind Chill: 81°   Ceiling: Unl
Heat Index: 82°   Visibility: 6mi
Dew Point: 63°   Wind: 20mph
Humidity: 54%   Direction: 20°NNE
Pressure: 29.94"   Gusts: NA
Location:  28.66°S, 153.62°E
Report Text: YBNA 250300Z AUTO 02017KT 9999 // NCD 27/17 Q1014
Loading
Personal Weather Stations






























Interactive Weather Map
Tropical Storm Tracking
New forecast layout! Learn more

10-Day Weather Forecast

Advertisements
Track Severe Weather on mobile